Time;durP1;ratioP1;P1;durP2;ratioP2;P2;SDS_P1;SDS_P2;PMS_P1;PMS_P2;Temp;Humidity;BMP_temperature;BMP_pressure;BME280_temperature;BME280_humidity;BME280_pressure;Samples;Min_cycle;Max_cycle;Signal;HPM_P1;HPM_P2
2022/09/21 00:02:09;;;;;;;3.17;0.97;;;11.90;82.00;;;12.00;55.65;95085.66;6177958;23;20408;-56
2022/09/21 00:04:36;;;;;;;1.13;1.03;;;11.80;82.10;;;11.98;56.13;95092.09;6177807;23;20647;-58
2022/09/21 00:07:03;;;;;;;1.10;1.00;;;11.80;82.40;;;11.95;55.80;95100.28;6178244;23;20401;-56
2022/09/21 00:09:32;;;;;;;1.20;1.10;;;11.80;82.50;;;11.92;55.78;95097.88;6178333;23;20436;-57
2022/09/21 00:11:59;;;;;;;9.83;1.60;;;11.70;82.60;;;11.88;55.88;95088.59;6177463;23;20397;-57
2022/09/21 00:14:27;;;;;;;1.63;1.53;;;11.70;82.40;;;11.85;56.09;95084.47;6178254;23;20454;-56
2022/09/21 00:16:54;;;;;;;2.60;1.63;;;11.70;82.60;;;11.81;55.97;95090.97;6178506;23;20398;-56
2022/09/21 00:19:21;;;;;;;4.13;1.50;;;11.70;83.10;;;11.76;55.97;95091.41;6178697;23;20468;-57
2022/09/21 00:21:49;;;;;;;1.90;1.33;;;11.60;83.10;;;11.72;55.87;95094.47;6178119;23;20771;-56
2022/09/21 00:24:16;;;;;;;2.23;2.03;;;11.60;82.80;;;11.64;56.11;95090.72;6178047;23;20426;-55
2022/09/21 00:26:45;;;;;;;1.50;1.10;;;11.50;82.80;;;11.57;56.16;95086.16;6178753;23;20401;-57
2022/09/21 00:29:12;;;;;;;1.73;1.60;;;11.40;82.80;;;11.49;56.12;95089.47;6178208;23;20432;-56
2022/09/21 00:31:40;;;;;;;1.67;1.57;;;11.40;83.30;;;11.40;56.43;95091.16;6178505;23;20468;-57
2022/09/21 00:34:07;;;;;;;2.33;1.20;;;11.30;83.20;;;11.32;56.41;95082.28;6176902;23;20429;-55
2022/09/21 00:36:34;;;;;;;1.80;1.70;;;11.20;83.10;;;11.22;56.39;95085.75;6178087;23;20425;-57
2022/09/21 00:39:02;;;;;;;1.37;1.27;;;11.10;83.50;;;11.17;56.67;95092.41;6178216;23;20429;-57
2022/09/21 00:41:31;;;;;;;2.03;1.63;;;11.10;84.00;;;11.10;56.76;95086.88;6177918;23;20405;-55
2022/09/21 00:44:31;;;;;;;1.57;1.17;;;11.00;84.40;;;11.02;57.43;95092.81;6177821;23;20429;-56
2022/09/21 00:47:02;;;;;;;2.20;1.03;;;10.90;84.90;;;10.96;57.17;95092.53;6178067;23;20704;-56
2022/09/21 00:49:29;;;;;;;1.80;1.57;;;10.80;84.80;;;10.90;57.14;95088.63;6177787;23;20417;-57
2022/09/21 00:51:57;;;;;;;2.47;1.07;;;10.80;85.00;;;10.84;57.45;95087.38;6177734;23;20402;-58
2022/09/21 00:54:27;;;;;;;1.80;1.70;;;10.70;85.70;;;10.79;57.27;95088.78;6177956;23;20433;-57
2022/09/21 00:56:54;;;;;;;1.60;1.50;;;10.70;85.50;;;10.73;57.78;95084.88;6177797;23;20401;-56
2022/09/21 00:59:23;;;;;;;1.67;1.57;;;10.60;86.20;;;10.67;57.60;95085.41;6177594;23;20425;-57
2022/09/21 01:01:50;;;;;;;1.87;1.60;;;10.60;86.20;;;10.62;57.83;95091.06;6176986;23;20405;-56
2022/09/21 01:04:18;;;;;;;1.43;1.33;;;10.50;86.80;;;10.57;58.06;95088.03;6177007;23;20456;-58
2022/09/21 01:06:46;;;;;;;2.07;1.93;;;10.50;87.00;;;10.52;57.95;95090.25;6178225;23;20459;-56
2022/09/21 01:09:14;;;;;;;5.17;1.70;;;10.40;86.90;;;10.46;57.98;95094.22;6177495;23;20476;-57
2022/09/21 01:11:47;;;;;;;1.80;1.70;;;10.40;87.20;;;10.42;58.31;95097.25;6177729;23;20406;-57
2022/09/21 01:14:30;;;;;;;1.30;1.20;;;10.30;87.60;;;10.36;58.38;95088.94;6178071;23;20468;-56
2022/09/21 01:17:04;;;;;;;1.70;1.60;;;10.30;88.00;;;10.32;58.60;95090.13;6177682;23;20480;-57
2022/09/21 01:20:23;;;;;;;2.07;1.97;;;10.20;88.20;;;10.28;59.03;95083.47;6177631;23;20418;-57
2022/09/21 01:23:04;;;;;;;6.60;2.00;;;10.20;88.80;;;10.25;59.49;95077.66;6136566;23;20834;-57
2022/09/21 01:25:37;;;;;;;1.50;1.40;;;10.20;90.10;;;10.21;58.69;95077.09;6177263;23;20429;-55
2022/09/21 01:28:13;;;;;;;2.17;1.97;;;10.10;89.00;;;10.17;58.80;95073.06;6177281;23;20390;-56
2022/09/21 01:30:42;;;;;;;4.90;2.17;;;10.10;89.70;;;10.15;58.89;95059.22;6177344;23;20440;-57
2022/09/21 01:33:13;;;;;;;2.03;1.93;;;10.00;90.00;;;10.12;59.07;95060.31;6177186;23;21023;-57
2022/09/21 01:35:43;;;;;;;2.80;2.00;;;10.00;90.20;;;10.09;58.98;95062.38;6177566;23;20456;-56
2022/09/21 01:38:12;;;;;;;2.83;1.83;;;10.00;90.30;;;10.07;59.27;95059.88;6177571;23;20398;-57
2022/09/21 01:40:42;;;;;;;1.80;1.63;;;10.00;90.30;;;10.04;59.41;95058.34;6177287;23;20426;-56
2022/09/21 01:43:12;;;;;;;2.03;1.83;;;10.00;90.50;;;10.00;59.72;95064.00;6177030;23;20410;-55
2022/09/21 01:45:44;;;;;;;2.43;1.87;;;9.90;91.30;;;9.97;59.58;95065.06;6177570;23;20422;-56
2022/09/21 01:48:11;;;;;;;1.57;1.47;;;9.90;91.40;;;9.96;59.56;95073.09;6176765;23;20417;-55
2022/09/21 01:50:41;;;;;;;4.20;1.70;;;9.90;91.60;;;9.95;59.68;95069.63;6176979;23;20425;-57
2022/09/21 01:53:11;;;;;;;1.80;1.70;;;9.90;91.70;;;9.92;59.77;95067.28;6177202;23;20421;-56
2022/09/21 01:55:42;;;;;;;2.30;2.10;;;9.90;91.80;;;9.93;59.77;95076.81;6176998;23;20455;-57
2022/09/21 01:58:12;;;;;;;1.70;1.60;;;9.80;91.70;;;9.92;59.75;95074.31;6177282;23;20390;-56
2022/09/21 02:00:40;;;;;;;1.70;1.60;;;9.80;92.00;;;9.91;59.99;95070.84;6176849;23;20938;-56
2022/09/21 02:03:12;;;;;;;3.77;2.17;;;9.80;92.20;;;9.92;60.18;95062.00;6176350;23;20922;-56
2022/09/21 02:05:39;;;;;;;1.67;1.57;;;9.80;92.20;;;9.92;60.04;95069.06;6177586;23;20782;-57
2022/09/21 02:08:06;;;;;;;2.73;1.90;;;9.80;92.20;;;9.91;59.89;95070.84;6177298;23;20891;-57
2022/09/21 02:10:37;;;;;;;1.83;1.73;;;9.80;92.20;;;9.91;59.89;95076.09;6176997;23;20426;-57
2022/09/21 02:13:05;;;;;;;1.80;1.70;;;9.80;92.30;;;9.89;60.20;95078.03;6177105;23;20472;-55
2022/09/21 02:15:42;;;;;;;2.00;1.80;;;9.80;92.70;;;9.89;60.41;95080.66;6176811;23;20449;-57
2022/09/21 02:18:17;;;;;;;1.60;1.50;;;9.80;92.60;;;9.89;60.34;95080.66;6177115;23;20452;-56
2022/09/21 02:20:49;;;;;;;2.40;1.70;;;9.80;92.60;;;9.90;60.37;95076.22;6176904;23;21042;-58
2022/09/21 02:23:21;;;;;;;1.63;1.40;;;9.80;92.80;;;9.89;60.48;95078.03;6177140;23;20390;-56
2022/09/21 02:25:53;;;;;;;2.07;1.97;;;9.80;93.00;;;9.87;60.77;95080.78;6176777;23;20426;-57
2022/09/21 02:28:29;;;;;;;2.43;1.93;;;9.80;93.10;;;9.87;60.44;95078.16;6176832;23;20402;-56
2022/09/21 02:31:03;;;;;;;2.50;2.30;;;9.80;93.00;;;9.86;60.48;95088.81;6176850;23;20404;-58
2022/09/21 02:33:32;;;;;;;5.73;2.30;;;9.80;93.10;;;9.86;60.73;95083.56;6176455;23;20394;-57
2022/09/21 02:36:05;;;;;;;2.03;1.83;;;9.80;93.10;;;9.84;60.50;95080.22;6176824;23;20508;-58
2022/09/21 02:38:35;;;;;;;5.67;2.53;;;9.80;93.10;;;9.83;60.32;95081.19;6177050;23;20424;-56
2022/09/21 02:41:06;;;;;;;2.10;2.00;;;9.70;93.00;;;9.77;60.65;95069.41;6176675;23;20404;-57
2022/09/21 02:43:36;;;;;;;2.17;1.97;;;9.70;93.20;;;9.79;60.55;95079.78;6176709;23;20396;-56
2022/09/21 02:46:08;;;;;;;2.20;2.00;;;9.70;93.20;;;9.75;60.46;95079.22;6176847;23;20779;-57
2022/09/21 02:48:37;;;;;;;3.20;1.50;;;9.70;93.20;;;9.72;60.56;95078.66;6176384;23;20398;-57
2022/09/21 02:51:07;;;;;;;7.27;1.80;;;9.60;93.30;;;9.68;60.67;95081.53;6176901;23;20404;-57
2022/09/21 02:53:36;;;;;;;2.43;2.20;;;9.60;93.40;;;9.65;60.82;95076.53;6177089;23;20809;-56
2022/09/21 02:56:06;;;;;;;2.03;1.83;;;9.60;93.40;;;9.61;60.84;95077.75;6176771;23;20456;-57
2022/09/21 02:58:35;;;;;;;1.77;1.67;;;9.50;93.50;;;9.58;61.18;95080.63;6176544;23;20446;-59
2022/09/21 03:01:07;;;;;;;3.73;1.70;;;9.50;93.60;;;9.54;61.42;95073.94;6176651;23;20405;-57
2022/09/21 03:03:34;;;;;;;1.50;1.40;;;9.50;93.70;;;9.52;61.26;95081.13;6177264;23;20394;-56
2022/09/21 03:06:02;;;;;;;2.37;1.80;;;9.50;93.80;;;9.51;60.96;95076.84;6176721;23;20405;-56
2022/09/21 03:08:29;;;;;;;6.17;2.30;;;9.50;93.80;;;9.49;61.42;95086.66;6176062;23;20787;-56
2022/09/21 03:10:57;;;;;;;5.37;1.80;;;9.40;94.00;;;9.47;61.19;95088.56;6176799;23;20480;-56
2022/09/21 03:13:25;;;;;;;1.70;1.60;;;9.40;94.10;;;9.45;61.16;95085.22;6178532;23;20468;-56
2022/09/21 03:15:59;;;;;;;1.60;1.50;;;9.40;94.00;;;9.43;61.40;95087.16;6182289;23;20444;-56
2022/09/21 03:18:28;;;;;;;2.30;1.40;;;9.40;94.10;;;9.42;61.48;95083.72;6183836;23;20484;-57
2022/09/21 03:20:55;;;;;;;2.00;1.90;;;9.30;94.10;;;9.40;61.28;95088.22;6176631;23;20402;-58
2022/09/21 03:23:22;;;;;;;3.10;1.80;;;9.30;94.10;;;9.38;61.63;95089.34;6176847;23;20768;-55
2022/09/21 03:25:51;;;;;;;2.37;2.17;;;9.30;94.50;;;9.37;61.46;95087.66;6176531;23;20425;-57
2022/09/21 03:28:18;;;;;;;1.33;1.23;;;9.30;94.50;;;9.35;61.04;95089.59;6176528;23;20504;-58
2022/09/21 03:30:46;;;;;;;2.00;1.77;;;9.30;94.30;;;9.31;61.47;95087.22;6176252;23;20433;-57
2022/09/21 03:33:13;;;;;;;1.43;1.33;;;9.20;94.30;;;9.29;61.54;95089.13;6176670;23;20397;-57
2022/09/21 03:35:42;;;;;;;2.40;2.20;;;9.20;94.30;;;9.27;61.34;95088.41;6176105;23;20476;-57
2022/09/21 03:38:09;;;;;;;3.67;2.20;;;9.20;94.50;;;9.24;61.56;95086.06;6176168;23;20468;-56
2022/09/21 03:40:36;;;;;;;3.23;1.97;;;9.20;94.60;;;9.23;61.80;95087.00;6176080;23;20413;-57
2022/09/21 03:43:03;;;;;;;2.30;2.20;;;9.20;94.60;;;9.24;61.57;95095.72;6176566;23;20402;-57
2022/09/21 03:45:31;;;;;;;2.27;1.70;;;9.20;94.60;;;9.23;62.26;95094.88;6176464;23;20425;-57
2022/09/21 03:47:59;;;;;;;2.00;1.90;;;9.20;94.90;;;9.22;62.47;95095.03;6176520;23;20401;-57
2022/09/21 03:50:27;;;;;;;2.47;1.93;;;9.20;95.00;;;9.22;61.86;95095.03;6176174;23;20460;-57
2022/09/21 03:52:57;;;;;;;3.10;1.70;;;9.10;94.90;;;9.21;62.27;95091.53;6176713;23;20489;-58
2022/09/21 03:55:24;;;;;;;3.63;2.33;;;9.10;94.90;;;9.22;61.97;95100.28;6175749;23;20429;-56
2022/09/21 03:57:51;;;;;;;2.63;2.50;;;9.10;95.20;;;9.21;62.09;95099.41;6174422;23;20870;-57
2022/09/21 04:00:19;;;;;;;2.33;1.50;;;9.10;95.00;;;9.21;62.15;95099.41;6171945;23;20425;-55
2022/09/21 04:02:46;;;;;;;7.13;2.30;;;9.10;95.30;;;9.23;61.92;95091.41;6173503;23;20770;-57
2022/09/21 04:05:15;;;;;;;6.07;2.03;;;9.10;95.20;;;9.22;61.70;95095.84;6173483;23;20480;-58
2022/09/21 04:07:44;;;;;;;7.60;1.73;;;9.10;95.10;;;9.21;62.03;95096.78;6173846;23;20436;-57
2022/09/21 04:10:15;;;;;;;2.23;2.03;;;9.10;95.20;;;9.22;62.02;95101.09;6175486;23;20465;-55
2022/09/21 04:12:42;;;;;;;5.40;2.10;;;9.10;95.40;;;9.25;61.62;95100.84;6175855;23;20405;-60
2022/09/21 04:15:11;;;;;;;4.67;3.77;;;9.20;95.20;;;9.26;61.95;95097.25;6175932;23;20436;-57
2022/09/21 04:17:38;;;;;;;2.20;2.10;;;9.20;95.20;;;9.28;62.30;95097.97;6176100;23;20532;-56
2022/09/21 04:20:07;;;;;;;2.23;2.10;;;9.20;95.30;;;9.30;62.16;95092.59;6175872;23;20422;-56
2022/09/21 04:22:35;;;;;;;1.97;1.87;;;9.20;95.40;;;9.31;62.19;95095.09;6175611;23;20480;-56
2022/09/21 04:25:03;;;;;;;2.93;2.20;;;9.20;95.40;;;9.34;62.58;95091.38;6175862;23;20429;-57
2022/09/21 04:27:32;;;;;;;4.60;2.13;;;9.30;95.50;;;9.35;62.10;95087.78;6175510;23;20406;-56
2022/09/21 04:29:59;;;;;;;2.47;2.30;;;9.30;95.50;;;9.38;62.14;95097.22;6175336;23;20752;-57
2022/09/21 04:32:27;;;;;;;3.57;3.27;;;9.30;95.60;;;9.39;62.10;95094.47;6174246;23;20397;-59
2022/09/21 04:34:54;;;;;;;2.70;2.50;;;9.30;95.60;;;9.41;62.30;95099.59;6175622;23;20894;-57
2022/09/21 04:37:21;;;;;;;4.53;2.40;;;9.30;95.40;;;9.44;61.96;95102.78;6176510;23;20452;-56
2022/09/21 04:39:49;;;;;;;6.10;3.00;;;9.30;95.70;;;9.47;62.02;95106.94;6177434;23;20484;-57
2022/09/21 04:42:16;;;;;;;10.33;4.47;;;9.40;95.40;;;9.46;61.97;95113.16;6177074;23;20424;-55
2022/09/21 04:44:45;;;;;;;6.67;2.80;;;9.40;95.40;;;9.47;62.48;95107.78;6175846;23;20957;-56
2022/09/21 04:47:12;;;;;;;3.37;2.90;;;9.40;95.70;;;9.50;62.27;95106.69;6174432;23;20413;-56
2022/09/21 04:49:39;;;;;;;8.70;3.37;;;9.40;95.50;;;9.54;62.16;95115.97;6174256;23;20743;-56
2022/09/21 04:52:07;;;;;;;4.93;3.40;;;9.50;95.60;;;9.62;62.23;95110.94;6175315;23;20398;-55
2022/09/21 04:54:34;;;;;;;10.43;3.57;;;9.50;95.80;;;9.72;62.11;95110.97;6172760;23;20425;-56
2022/09/21 04:57:01;;;;;;;7.33;2.80;;;9.60;95.80;;;9.79;62.26;95106.91;6171520;23;20457;-56
2022/09/21 04:59:29;;;;;;;8.50;3.50;;;9.70;95.80;;;9.88;61.65;95115.78;6174048;23;20527;-57
2022/09/21 05:01:57;;;;;;;10.33;3.40;;;9.70;95.60;;;9.94;61.83;95117.88;6172081;23;20410;-57
2022/09/21 05:04:25;;;;;;;5.40;3.47;;;9.80;95.50;;;10.04;61.60;95118.78;6174629;23;20431;-58
2022/09/21 05:06:52;;;;;;;14.50;3.67;;;9.90;95.60;;;10.14;61.49;95115.38;6176732;23;20405;-56
2022/09/21 05:12:05;;;;;;;14.60;3.60;;;10.10;94.60;;;10.27;61.57;95118.63;6174689;23;20789;-57
2022/09/21 05:14:32;;;;;;;10.93;3.60;;;10.20;94.80;;;10.34;61.24;95118.94;6174756;23;20429;-57
2022/09/21 05:17:01;;;;;;;12.43;3.70;;;10.20;94.60;;;10.42;61.20;95115.66;6173564;23;20475;-58
2022/09/21 05:19:28;;;;;;;9.33;2.40;;;10.30;94.60;;;10.50;60.75;95113.19;6174628;23;20418;-57
2022/09/21 05:21:56;;;;;;;8.07;2.53;;;10.40;94.40;;;10.61;60.64;95109.63;6174612;23;20405;-57
2022/09/21 05:24:23;;;;;;;22.93;4.53;;;10.50;94.30;;;10.73;60.34;95119.06;6176260;23;20453;-58
2022/09/21 05:26:50;;;;;;;5.80;2.10;;;10.60;94.10;;;10.81;59.96;95116.59;6176287;23;20767;-57
2022/09/21 05:29:18;;;;;;;8.13;3.17;;;10.70;93.90;;;10.89;59.97;95113.28;6176971;23;20429;-57
2022/09/21 05:31:48;;;;;;;9.40;2.20;;;10.70;93.70;;;10.98;59.63;95115.09;6175217;23;20412;-58
2022/09/21 05:34:40;;;;;;;2.60;2.30;;;10.80;93.50;;;11.08;59.68;95118.59;6176350;23;20464;-57
2022/09/21 05:37:11;;;;;;;6.90;3.70;;;10.90;93.50;;;11.18;59.47;95115.13;6176005;23;20433;-56
2022/09/21 05:39:40;;;;;;;4.90;2.13;;;11.00;93.40;;;11.25;59.27;95111.81;6176014;23;20922;-57
2022/09/21 05:42:09;;;;;;;3.90;2.20;;;11.10;93.20;;;11.37;59.33;95109.88;6175752;23;20851;-57
2022/09/21 05:44:37;;;;;;;3.20;2.30;;;11.20;93.20;;;11.42;58.49;95115.56;6177049;23;20426;-57
2022/09/21 05:47:11;;;;;;;2.50;2.33;;;11.20;92.80;;;11.51;58.50;95119.16;6175470;23;20429;-58
2022/09/21 05:49:49;;;;;;;7.20;2.53;;;11.30;92.70;;;11.62;58.32;95110.28;6176337;23;20501;-57
2022/09/21 05:52:20;;;;;;;3.63;2.00;;;11.40;92.50;;;11.71;58.25;95105.97;6176487;23;20394;-56
2022/09/21 05:55:00;;;;;;;7.13;3.10;;;11.50;92.50;;;11.83;57.97;95104.84;6179185;23;20426;-57
2022/09/21 05:57:37;;;;;;;2.63;2.43;;;11.60;92.20;;;11.92;57.81;95113.72;6175770;23;20438;-57
2022/09/21 06:00:13;;;;;;;13.73;3.50;;;11.70;92.10;;;12.03;57.77;95103.03;6174818;23;20448;-56
2022/09/21 06:02:53;;;;;;;7.07;2.33;;;11.90;92.00;;;12.14;57.25;95108.09;6171957;23;20455;-56
2022/09/21 06:05:23;;;;;;;4.73;2.83;;;11.90;91.80;;;12.25;57.23;95122.09;6175348;23;20444;-62
2022/09/21 06:07:50;;;;;;;7.63;2.93;;;12.00;91.60;;;12.34;57.32;95123.88;6174745;23;20899;-57
2022/09/21 06:10:18;;;;;;;4.63;3.00;;;12.20;91.70;;;12.45;57.60;95123.69;6175632;23;20445;-59
2022/09/21 06:12:45;;;;;;;3.27;2.97;;;12.20;92.00;;;12.60;57.54;95120.59;6175832;23;20413;-58
2022/09/21 06:15:14;;;;;;;5.00;2.27;;;12.40;92.00;;;12.71;56.93;95123.03;6176590;23;20433;-58
2022/09/21 06:17:41;;;;;;;3.57;2.10;;;12.50;91.50;;;12.84;56.59;95127.97;6175347;23;20524;-58
2022/09/21 06:20:10;;;;;;;10.53;2.53;;;12.60;91.20;;;12.93;56.33;95120.97;6175674;23;20495;-58
2022/09/21 06:22:38;;;;;;;2.27;2.17;;;12.70;90.90;;;13.06;55.99;95127.56;6175836;23;20929;-58
2022/09/21 06:25:07;;;;;;;5.60;2.63;;;12.80;90.80;;;13.19;55.70;95123.72;6175971;23;20532;-57
2022/09/21 06:27:35;;;;;;;5.67;2.77;;;13.00;90.50;;;13.33;55.30;95132.94;6176068;23;20413;-57
2022/09/21 06:30:02;;;;;;;3.23;2.87;;;13.10;90.50;;;13.45;55.43;95131.78;6177047;23;20429;-56
2022/09/21 06:32:29;;;;;;;6.73;3.97;;;13.20;90.30;;;13.61;55.30;95131.91;6174794;23;20868;-56
2022/09/21 06:34:57;;;;;;;22.90;2.93;;;13.40;90.20;;;13.77;55.05;95130.38;6176169;23;20481;-57
2022/09/21 06:37:24;;;;;;;11.93;2.37;;;13.50;90.10;;;13.90;54.98;95130.81;6175947;23;20788;-57
2022/09/21 06:39:53;;;;;;;4.93;2.90;;;13.60;90.00;;;14.08;54.69;95136.09;6175805;23;20422;-58
2022/09/21 06:42:20;;;;;;;2.60;2.50;;;13.80;89.90;;;14.26;54.45;95136.03;6175270;23;20409;-57
2022/09/21 06:44:47;;;;;;;4.10;3.43;;;14.00;89.60;;;14.45;54.36;95135.00;6176151;23;20503;-59
2022/09/21 06:47:15;;;;;;;2.37;2.23;;;14.10;89.30;;;14.63;54.30;95134.94;6175127;23;20405;-59
2022/09/21 06:49:42;;;;;;;4.90;2.30;;;14.30;89.00;;;14.80;53.83;95137.66;6175741;23;20512;-56
2022/09/21 06:52:09;;;;;;;7.87;2.43;;;14.50;88.70;;;14.95;53.98;95138.72;6175781;23;20943;-57
2022/09/21 06:54:37;;;;;;;4.73;2.70;;;14.70;88.30;;;15.09;53.55;95142.56;6175774;23;20476;-57
2022/09/21 06:57:06;;;;;;;3.30;2.37;;;14.80;87.90;;;15.20;53.52;95144.91;6174990;23;20511;-57
2022/09/21 06:59:33;;;;;;;8.17;4.10;;;15.00;87.40;;;15.29;53.42;95140.47;6174812;23;20429;-56
2022/09/21 07:02:01;;;;;;;6.83;2.10;;;15.00;87.10;;;15.39;53.39;95140.31;6172550;23;20934;-56
2022/09/21 07:04:28;;;;;;;4.70;2.13;;;15.10;87.20;;;15.47;53.24;95144.81;6174681;23;20496;-57
2022/09/21 07:06:56;;;;;;;6.37;2.87;;;15.20;87.00;;;15.55;53.13;95142.16;6175519;23;20878;-59
2022/09/21 07:09:23;;;;;;;6.50;2.50;;;15.30;86.70;;;15.64;53.04;95141.19;6175317;23;20436;-56
2022/09/21 07:11:51;;;;;;;6.77;1.90;;;15.30;86.30;;;15.68;53.01;95142.50;6175303;23;20822;-57
2022/09/21 07:14:21;;;;;;;3.77;3.00;;;15.40;86.20;;;15.73;53.02;95145.50;6174989;23;20803;-56
2022/09/21 07:16:49;;;;;;;5.73;2.67;;;15.50;86.40;;;15.83;53.21;95147.19;6174361;23;20434;-57
2022/09/21 07:19:16;;;;;;;2.43;1.83;;;15.50;86.40;;;15.92;53.42;95144.34;6175528;23;20429;-56
2022/09/21 07:21:43;;;;;;;2.70;2.50;;;15.60;86.20;;;16.02;52.85;95149.53;6176634;23;20910;-57
2022/09/21 07:24:11;;;;;;;3.93;1.97;;;15.70;85.80;;;16.13;52.97;95149.16;6175115;23;20448;-57
2022/09/21 07:26:38;;;;;;;4.40;2.63;;;15.80;85.90;;;16.22;52.56;95143.84;6175334;23;20420;-57
2022/09/21 07:29:05;;;;;;;1.77;1.67;;;15.90;85.10;;;16.27;52.05;95145.00;6174844;23;20421;-57
2022/09/21 07:31:34;;;;;;;5.27;1.70;;;16.00;84.40;;;16.27;52.08;95142.34;6174016;23;20409;-57
2022/09/21 07:34:01;;;;;;;13.93;2.60;;;16.00;84.00;;;16.29;52.25;95144.84;6174504;23;20429;-57
2022/09/21 07:36:28;;;;;;;12.33;2.70;;;16.00;83.70;;;16.27;51.76;95152.97;6174958;23;20405;-56
2022/09/21 07:38:56;;;;;;;2.63;2.30;;;16.00;82.90;;;16.26;52.04;95147.84;6174605;23;20487;-57
2022/09/21 07:41:23;;;;;;;2.40;1.80;;;16.00;83.20;;;16.28;51.93;95149.34;6174621;23;20409;-57
2022/09/21 07:43:52;;;;;;;4.47;1.60;;;16.00;82.70;;;16.25;51.64;95148.81;6175284;23;20422;-56
2022/09/21 07:46:19;;;;;;;3.87;2.00;;;16.00;82.30;;;16.24;51.70;95149.84;6175830;23;20401;-56
2022/09/21 07:48:48;;;;;;;6.30;1.73;;;16.00;82.60;;;16.28;51.75;95144.03;6174630;23;20972;-58
2022/09/21 07:51:15;;;;;;;1.43;1.30;;;16.00;82.70;;;16.33;50.43;95140.88;6174988;23;21005;-58
2022/09/21 07:53:44;;;;;;;2.93;1.77;;;16.00;80.30;;;16.34;50.64;95147.00;6176441;23;20402;-57
2022/09/21 07:56:12;;;;;;;2.33;1.83;;;16.10;79.90;;;16.34;50.78;95147.00;6176471;23;20883;-56
2022/09/21 08:01:25;;;;;;;5.50;2.00;;;16.10;80.60;;;16.47;50.63;95150.78;6175580;23;20389;-57
2022/09/21 08:03:55;;;;;;;1.90;1.80;;;16.20;80.50;;;16.60;50.36;95144.13;6175073;23;20429;-57
2022/09/21 08:06:23;;;;;;;1.87;1.77;;;16.30;79.30;;;16.70;50.55;95146.56;6175071;23;20713;-57
2022/09/21 08:08:51;;;;;;;1.87;1.77;;;16.40;79.40;;;16.81;50.46;95143.56;6175888;23;20509;-58
2022/09/21 08:11:21;;;;;;;1.30;1.20;;;16.50;79.30;;;16.95;49.03;95142.06;6176019;23;20755;-56
2022/09/21 08:13:48;;;;;;;6.10;1.13;;;16.60;76.60;;;17.02;48.45;95133.22;6178121;23;20834;-58
2022/09/21 08:16:15;;;;;;;5.87;1.20;;;16.70;75.70;;;17.06;48.46;95141.66;6177902;23;20402;-61
2022/09/21 08:18:43;;;;;;;4.73;1.70;;;16.80;75.50;;;17.11;49.04;95138.47;6178306;23;20488;-58
2022/09/21 08:21:15;;;;;;;5.67;1.80;;;16.80;76.40;;;17.24;48.34;95136.06;6178291;23;20406;-56
2022/09/21 08:23:42;;;;;;;1.40;1.30;;;16.90;74.50;;;17.36;48.35;95141.81;6178135;23;20452;-57
2022/09/21 08:26:13;;;;;;;11.40;1.30;;;17.00;74.90;;;17.43;47.87;95136.63;6178151;23;20401;-60
2022/09/21 08:28:40;;;;;;;3.90;1.23;;;17.10;73.20;;;17.49;45.82;95134.13;6177989;23;20385;-57
2022/09/21 08:31:09;;;;;;;1.00;0.90;;;17.20;70.30;;;17.54;46.57;95128.28;6177862;23;20758;-57
2022/09/21 08:33:36;;;;;;;3.73;0.80;;;17.20;70.30;;;17.66;46.88;95123.34;6177608;23;20415;-57
2022/09/21 08:36:04;;;;;;;2.60;1.20;;;17.30;71.10;;;17.80;45.95;95111.94;6177938;23;20903;-57
2022/09/21 08:38:35;;;;;;;6.00;1.67;;;17.50;69.50;;;17.97;46.39;95128.66;6178573;23;20449;-57
2022/09/21 08:41:03;;;;;;;1.73;1.10;;;17.60;71.40;;;18.12;45.91;95126.00;6179191;23;20787;-57
2022/09/21 08:43:34;;;;;;;1.23;0.83;;;17.70;70.30;;;18.19;45.78;95121.63;6178010;23;20417;-58
2022/09/21 08:46:04;;;;;;;1.20;1.10;;;17.80;67.90;;;18.30;44.09;95117.69;6177634;23;20394;-55
2022/09/21 08:48:36;;;;;;;1.40;0.87;;;17.90;66.10;;;18.40;45.31;95122.75;6177868;23;20401;-56
2022/09/21 08:51:06;;;;;;;2.20;1.17;;;18.10;67.60;;;18.49;44.69;95116.31;6177792;23;20402;-56
2022/09/21 08:53:37;;;;;;;2.30;1.40;;;18.10;67.50;;;18.56;43.90;95111.94;6178109;23;20394;-57
2022/09/21 08:56:05;;;;;;;2.27;0.93;;;18.20;65.90;;;18.63;44.54;95112.00;6177819;23;20396;-57
2022/09/21 08:58:32;;;;;;;4.60;1.37;;;18.30;66.30;;;18.73;44.99;95106.41;6177392;23;20454;-58
2022/09/21 09:01:24;;;;;;;2.27;1.30;;;18.40;66.50;;;18.83;43.28;95106.94;6177787;23;20464;-58
2022/09/21 09:04:16;;;;;;;3.00;1.17;;;18.50;65.00;;;18.90;44.14;95101.72;6177615;23;20418;-57
2022/09/21 09:06:49;;;;;;;2.50;1.17;;;18.50;66.10;;;19.04;44.30;95097.38;6177675;23;20400;-56
2022/09/21 09:09:36;;;;;;;2.03;1.30;;;18.70;66.10;;;19.19;43.89;95098.19;6177684;23;20445;-57
2022/09/21 09:12:15;;;;;;;3.57;1.27;;;18.80;65.40;;;19.32;44.09;95093.00;6178340;23;20725;-57
2022/09/21 09:15:12;;;;;;;1.40;1.07;;;19.00;65.60;;;19.47;43.24;95094.78;6177308;23;20444;-57
2022/09/21 09:17:52;;;;;;;1.13;1.00;;;19.10;64.50;;;19.62;43.47;95097.41;6177616;23;20440;-57
2022/09/21 09:20:21;;;;;;;2.33;1.00;;;19.20;63.90;;;19.75;43.25;95102.03;6177356;23;20421;-57
2022/09/21 09:22:52;;;;;;;1.53;1.43;;;19.40;63.60;;;19.89;42.89;95090.50;6177519;23;20445;-57
2022/09/21 09:25:23;;;;;;;1.30;0.90;;;19.50;63.00;;;20.02;42.58;95079.94;6176673;23;20421;-57
2022/09/21 09:27:53;;;;;;;1.23;1.13;;;19.60;62.50;;;20.11;41.88;95079.78;6177412;23;20669;-57
2022/09/21 09:30:22;;;;;;;2.87;1.10;;;19.70;61.30;;;20.18;42.02;95083.34;6176499;23;20554;-58
2022/09/21 09:32:56;;;;;;;4.73;1.23;;;19.80;61.90;;;20.21;41.18;95075.75;6176339;23;20401;-57
2022/09/21 09:35:27;;;;;;;2.27;1.10;;;19.80;59.70;;;20.18;40.10;95061.97;6176828;23;20417;-57
2022/09/21 09:37:58;;;;;;;4.20;1.10;;;19.80;58.10;;;20.17;40.96;95071.00;6177915;23;20848;-57
2022/09/21 09:40:48;;;;;;;2.60;0.90;;;19.80;58.40;;;20.23;41.21;95071.06;6177300;23;20488;-58
2022/09/21 09:43:20;;;;;;;1.40;0.90;;;19.80;59.40;;;20.36;41.05;95067.66;6177109;23;20401;-57
2022/09/21 09:45:54;;;;;;;3.13;1.50;;;20.00;60.00;;;20.37;40.93;95066.63;6176861;23;20953;-58
2022/09/21 09:48:40;;;;;;;1.53;1.30;;;20.00;59.00;;;20.33;40.94;95068.03;6176829;23;20460;-57
2022/09/21 09:51:10;;;;;;;3.87;1.00;;;20.00;59.00;;;20.37;40.96;95058.63;6177163;23;20427;-57
2022/09/21 09:53:37;;;;;;;3.80;0.93;;;20.00;58.70;;;20.47;41.15;95065.47;6176837;23;20759;-58
2022/09/21 09:56:08;;;;;;;1.77;1.20;;;20.10;58.80;;;20.60;40.48;95054.81;6176660;23;20481;-57
2022/09/21 09:58:39;;;;;;;1.87;1.00;;;20.20;57.90;;;20.68;38.08;95045.84;6176484;23;20449;-59
2022/09/21 10:01:07;;;;;;;4.10;1.13;;;20.20;54.90;;;20.64;39.64;95053.41;6177186;23;20390;-58
2022/09/21 10:03:34;;;;;;;3.93;1.60;;;20.30;56.50;;;20.70;39.64;95051.84;6176397;23;20489;-57
2022/09/21 10:06:02;;;;;;;2.27;0.70;;;20.30;56.70;;;20.99;39.59;95053.41;6176564;23;20412;-58
2022/09/21 10:08:42;;;;;;;3.30;1.30;;;20.60;56.60;;;21.49;39.53;95047.81;6176747;23;20989;-57
2022/09/21 10:11:11;;;;;;;2.00;0.90;;;20.90;56.90;;;22.07;38.72;95033.81;6176394;23;20402;-58
2022/09/21 10:13:40;;;;;;;2.80;1.10;;;21.40;56.40;;;22.51;36.89;95032.34;6177178;23;20410;-58
2022/09/21 10:16:12;;;;;;;0.90;0.77;;;21.90;53.80;;;22.84;36.92;95023.34;6176662;23;20429;-57
2022/09/21 10:18:44;;;;;;;2.30;1.20;;;22.30;53.80;;;23.00;34.15;95026.59;6177635;23;20529;-58
2022/09/21 10:21:18;;;;;;;1.53;0.90;;;22.40;51.20;;;22.98;36.22;95031.34;6176705;23;20460;-58
2022/09/21 10:23:47;;;;;;;2.47;0.83;;;22.50;52.40;;;23.11;36.69;95023.25;6176380;23;20406;-57
2022/09/21 10:26:16;;;;;;;3.00;0.60;;;22.70;52.70;;;23.48;35.17;95020.78;6176274;23;20879;-58
2022/09/21 10:28:57;;;;;;;0.90;0.70;;;22.90;51.80;;;23.89;33.88;95016.81;6177088;23;20657;-58
2022/09/21 10:31:25;;;;;;;1.00;0.60;;;23.30;50.60;;;24.23;33.76;95017.31;6176336;23;20401;-58
2022/09/21 10:33:55;;;;;;;5.70;1.30;;;23.60;49.70;;;24.49;31.94;95018.09;6176483;23;20414;-58
2022/09/21 10:36:31;;;;;;;3.03;1.33;;;23.90;46.40;;;24.57;32.17;95023.22;6176774;23;20485;-58
2022/09/21 10:39:21;;;;;;;2.30;0.80;;;24.10;48.10;;;24.67;31.33;95010.06;6177137;23;20455;-58
2022/09/21 10:41:52;;;;;;;0.80;0.70;;;24.20;47.00;;;24.85;32.86;95005.72;6176927;23;20386;-58